Terminal Aerodrome Forecast
Issued by NWS Paducah, KY

Home | Current Version | Previous Version | Text Only | Print | Product List | Glossary On
Versions: 1 2 3 4 5 6 7 8 9 10 11 12 13 14
000
FTUS43 KPAH 131120
TAFPAH
TAF
KPAH 131120Z 1312/1412 21007KT P6SM SKC
     FM131500 22019G32KT P6SM SCT250
     FM132200 25012KT P6SM FEW250
     FM140300 32008KT P6SM SCT150=

USA.gov is the U.S. government's official web portal to all federal, state and local government web resources and services.